sensor_id;sensor_type;location;lat;lon;timestamp;pressure;altitude;pressure_sealevel;temperature;humidity
7105;BME280;3594;42.152;24.714;2023-07-09T00:00:00;61987.94;;;22.73;nan
7105;BME280;3594;42.152;24.714;2023-07-09T00:02:27;61909.28;;;22.40;nan
7105;BME280;3594;42.152;24.714;2023-07-09T00:04:52;62013.00;;;22.63;nan
7105;BME280;3594;42.152;24.714;2023-07-09T00:07:28;62042.00;;;22.29;nan
7105;BME280;3594;42.152;24.714;2023-07-09T00:09:55;61940.03;;;22.52;nan
7105;BME280;3594;42.152;24.714;2023-07-09T00:12:21;61964.84;;;22.55;nan
7105;BME280;3594;42.152;24.714;2023-07-09T00:14:46;62034.66;;;22.34;nan
7105;BME280;3594;42.152;24.714;2023-07-09T00:17:19;61962.19;;;22.27;nan
7105;BME280;3594;42.152;24.714;2023-07-09T00:19:46;61606.63;;;18.99;nan
7105;BME280;3594;42.152;24.714;2023-07-09T00:22:17;61786.06;;;21.86;nan
7105;BME280;3594;42.152;24.714;2023-07-09T00:24:49;61977.91;;;21.74;nan
7105;BME280;3594;42.152;24.714;2023-07-09T00:27:17;61837.16;;;21.60;nan
7105;BME280;3594;42.152;24.714;2023-07-09T00:29:43;61876.63;;;21.65;nan
7105;BME280;3594;42.152;24.714;2023-07-09T00:32:14;61983.03;;;21.79;nan
7105;BME280;3594;42.152;24.714;2023-07-09T00:34:44;61799.16;;;21.54;nan
7105;BME280;3594;42.152;24.714;2023-07-09T00:37:23;61841.53;;;21.73;nan
7105;BME280;3594;42.152;24.714;2023-07-09T00:39:52;61859.47;;;21.71;nan
7105;BME280;3594;42.152;24.714;2023-07-09T00:42:20;61887.88;;;21.68;nan
7105;BME280;3594;42.152;24.714;2023-07-09T00:44:50;61850.84;;;21.40;nan
7105;BME280;3594;42.152;24.714;2023-07-09T00:47:30;61952.72;;;21.93;nan
7105;BME280;3594;42.152;24.714;2023-07-09T00:52:51;61864.56;;;21.91;nan
7105;BME280;3594;42.152;24.714;2023-07-09T00:55:22;61837.31;;;21.51;nan
7105;BME280;3594;42.152;24.714;2023-07-09T00:57:51;61938.53;;;21.11;nan
7105;BME280;3594;42.152;24.714;2023-07-09T01:00:33;61901.81;;;21.94;nan
7105;BME280;3594;42.152;24.714;2023-07-09T01:03:15;61843.13;;;21.79;nan
7105;BME280;3594;42.152;24.714;2023-07-09T01:05:44;61868.06;;;21.90;nan
7105;BME280;3594;42.152;24.714;2023-07-09T01:08:11;61921.00;;;21.88;nan
7105;BME280;3594;42.152;24.714;2023-07-09T01:10:37;61929.13;;;22.02;nan
7105;BME280;3594;42.152;24.714;2023-07-09T01:13:06;61832.28;;;21.58;nan
7105;BME280;3594;42.152;24.714;2023-07-09T01:15:34;61878.69;;;21.92;nan
7105;BME280;3594;42.152;24.714;2023-07-09T01:18:03;61890.59;;;21.91;nan
7105;BME280;3594;42.152;24.714;2023-07-09T01:20:29;61873.59;;;21.88;nan
7105;BME280;3594;42.152;24.714;2023-07-09T01:22:54;61862.88;;;21.74;nan
7105;BME280;3594;42.152;24.714;2023-07-09T01:25:23;61901.50;;;21.80;nan
7105;BME280;3594;42.152;24.714;2023-07-09T01:27:49;61823.47;;;21.64;nan
7105;BME280;3594;42.152;24.714;2023-07-09T01:30:27;61872.44;;;21.59;nan
7105;BME280;3594;42.152;24.714;2023-07-09T01:32:57;61858.78;;;21.47;nan
7105;BME280;3594;42.152;24.714;2023-07-09T01:35:23;61825.25;;;21.49;nan
7105;BME280;3594;42.152;24.714;2023-07-09T01:37:49;61715.50;;;20.61;nan
7105;BME280;3594;42.152;24.714;2023-07-09T01:40:19;61964.97;;;21.21;nan
7105;BME280;3594;42.152;24.714;2023-07-09T01:42:45;61842.03;;;21.62;nan
7105;BME280;3594;42.152;24.714;2023-07-09T01:45:11;61832.88;;;21.42;nan
7105;BME280;3594;42.152;24.714;2023-07-09T01:47:38;61906.66;;;21.20;nan
7105;BME280;3594;42.152;24.714;2023-07-09T01:50:07;61858.63;;;21.40;nan
7105;BME280;3594;42.152;24.714;2023-07-09T01:52:36;63384.00;;;19.54;nan
7105;BME280;3594;42.152;24.714;2023-07-09T01:55:02;61762.50;;;21.07;nan
7105;BME280;3594;42.152;24.714;2023-07-09T01:57:29;61868.88;;;21.33;nan
7105;BME280;3594;42.152;24.714;2023-07-09T02:00:00;61785.84;;;21.40;nan
7105;BME280;3594;42.152;24.714;2023-07-09T02:02:26;62174.53;;;21.27;nan
7105;BME280;3594;42.152;24.714;2023-07-09T02:04:54;62082.41;;;21.05;nan
7105;BME280;3594;42.152;24.714;2023-07-09T02:07:22;61798.84;;;21.40;nan
7105;BME280;3594;42.152;24.714;2023-07-09T02:09:48;61883.91;;;21.32;nan
7105;BME280;3594;42.152;24.714;2023-07-09T02:12:14;61860.84;;;21.14;nan
7105;BME280;3594;42.152;24.714;2023-07-09T02:14:41;61868.31;;;21.32;nan
7105;BME280;3594;42.152;24.714;2023-07-09T02:17:07;61793.75;;;21.35;nan
7105;BME280;3594;42.152;24.714;2023-07-09T02:19:33;61901.03;;;21.43;nan
7105;BME280;3594;42.152;24.714;2023-07-09T02:21:58;61730.19;;;21.06;nan
7105;BME280;3594;42.152;24.714;2023-07-09T02:24:24;61818.59;;;21.34;nan
7105;BME280;3594;42.152;24.714;2023-07-09T02:27:01;61857.00;;;21.50;nan
7105;BME280;3594;42.152;24.714;2023-07-09T02:29:28;61805.19;;;21.41;nan
7105;BME280;3594;42.152;24.714;2023-07-09T02:31:56;61814.03;;;21.46;nan
7105;BME280;3594;42.152;24.714;2023-07-09T02:34:22;62122.34;;;21.41;nan
7105;BME280;3594;42.152;24.714;2023-07-09T02:36:55;61803.97;;;21.44;nan
7105;BME280;3594;42.152;24.714;2023-07-09T02:39:21;61836.22;;;21.50;nan
7105;BME280;3594;42.152;24.714;2023-07-09T02:41:48;61876.66;;;21.49;nan
7105;BME280;3594;42.152;24.714;2023-07-09T02:44:13;61817.66;;;21.52;nan
7105;BME280;3594;42.152;24.714;2023-07-09T02:46:39;61903.22;;;21.33;nan
7105;BME280;3594;42.152;24.714;2023-07-09T02:49:05;61875.38;;;21.25;nan
7105;BME280;3594;42.152;24.714;2023-07-09T02:51:31;61833.84;;;21.52;nan
7105;BME280;3594;42.152;24.714;2023-07-09T02:54:00;61799.56;;;21.47;nan
7105;BME280;3594;42.152;24.714;2023-07-09T02:56:26;61885.63;;;21.18;nan
7105;BME280;3594;42.152;24.714;2023-07-09T02:58:52;61826.22;;;21.43;nan
7105;BME280;3594;42.152;24.714;2023-07-09T03:01:18;62049.69;;;21.32;nan
7105;BME280;3594;42.152;24.714;2023-07-09T03:03:45;61825.38;;;21.56;nan
7105;BME280;3594;42.152;24.714;2023-07-09T03:06:10;61774.25;;;21.27;nan
7105;BME280;3594;42.152;24.714;2023-07-09T03:08:36;61791.09;;;21.51;nan
7105;BME280;3594;42.152;24.714;2023-07-09T03:11:10;61815.78;;;21.59;nan
7105;BME280;3594;42.152;24.714;2023-07-09T03:13:36;61899.25;;;22.22;nan
7105;BME280;3594;42.152;24.714;2023-07-09T03:16:02;62060.78;;;22.29;nan
7105;BME280;3594;42.152;24.714;2023-07-09T03:18:28;61951.47;;;22.57;nan
7105;BME280;3594;42.152;24.714;2023-07-09T03:20:54;61979.34;;;22.82;nan
7105;BME280;3594;42.152;24.714;2023-07-09T03:23:19;61997.19;;;23.44;nan
7105;BME280;3594;42.152;24.714;2023-07-09T03:25:44;62145.75;;;23.93;nan
7105;BME280;3594;42.152;24.714;2023-07-09T03:28:11;63733.53;;;21.98;nan
7105;BME280;3594;42.152;24.714;2023-07-09T03:30:44;62164.44;;;24.70;nan
7105;BME280;3594;42.152;24.714;2023-07-09T03:33:11;62366.94;;;25.82;nan
7105;BME280;3594;42.152;24.714;2023-07-09T03:35:37;62430.59;;;26.41;nan
7105;BME280;3594;42.152;24.714;2023-07-09T03:38:04;62565.22;;;27.34;nan
7105;BME280;3594;42.152;24.714;2023-07-09T03:40:30;62581.28;;;27.60;nan
7105;BME280;3594;42.152;24.714;2023-07-09T03:42:55;62754.56;;;27.76;nan
7105;BME280;3594;42.152;24.714;2023-07-09T03:45:21;62779.56;;;28.79;nan
7105;BME280;3594;42.152;24.714;2023-07-09T03:47:46;62986.69;;;29.32;nan
7105;BME280;3594;42.152;24.714;2023-07-09T03:50:12;62949.91;;;29.55;nan
7105;BME280;3594;42.152;24.714;2023-07-09T03:52:37;63043.38;;;29.96;nan
7105;BME280;3594;42.152;24.714;2023-07-09T03:55:03;63047.97;;;30.00;nan
7105;BME280;3594;42.152;24.714;2023-07-09T03:57:32;63001.28;;;29.91;nan
7105;BME280;3594;42.152;24.714;2023-07-09T03:59:58;63404.56;;;31.02;nan
7105;BME280;3594;42.152;24.714;2023-07-09T04:02:23;63284.81;;;31.87;nan
7105;BME280;3594;42.152;24.714;2023-07-09T04:04:49;63398.81;;;32.57;nan
7105;BME280;3594;42.152;24.714;2023-07-09T04:07:15;63489.81;;;33.22;nan
7105;BME280;3594;42.152;24.714;2023-07-09T04:09:41;63679.91;;;33.75;nan
7105;BME280;3594;42.152;24.714;2023-07-09T04:12:07;63628.44;;;33.25;nan
7105;BME280;3594;42.152;24.714;2023-07-09T04:14:33;63290.81;;;31.94;nan
7105;BME280;3594;42.152;24.714;2023-07-09T04:16:59;63294.00;;;31.83;nan
7105;BME280;3594;42.152;24.714;2023-07-09T04:19:24;63312.59;;;32.07;nan
7105;BME280;3594;42.152;24.714;2023-07-09T04:21:50;63424.34;;;32.19;nan
7105;BME280;3594;42.152;24.714;2023-07-09T04:24:19;63307.06;;;32.04;nan
7105;BME280;3594;42.152;24.714;2023-07-09T04:26:45;63253.84;;;31.67;nan
7105;BME280;3594;42.152;24.714;2023-07-09T04:29:11;63138.41;;;31.02;nan
7105;BME280;3594;42.152;24.714;2023-07-09T04:31:37;63023.28;;;30.29;nan
7105;BME280;3594;42.152;24.714;2023-07-09T04:34:03;62922.50;;;29.77;nan
7105;BME280;3594;42.152;24.714;2023-07-09T04:36:29;63017.78;;;29.59;nan
7105;BME280;3594;42.152;24.714;2023-07-09T04:38:54;62868.94;;;29.12;nan
7105;BME280;3594;42.152;24.714;2023-07-09T04:41:20;62924.94;;;29.87;nan
7105;BME280;3594;42.152;24.714;2023-07-09T04:43:45;62922.25;;;29.63;nan
7105;BME280;3594;42.152;24.714;2023-07-09T04:46:11;62890.94;;;29.50;nan
7105;BME280;3594;42.152;24.714;2023-07-09T04:48:36;62983.22;;;29.45;nan
7105;BME280;3594;42.152;24.714;2023-07-09T04:51:02;62978.09;;;29.52;nan
7105;BME280;3594;42.152;24.714;2023-07-09T04:53:27;63053.25;;;29.83;nan
7105;BME280;3594;42.152;24.714;2023-07-09T04:55:52;62954.53;;;29.31;nan
7105;BME280;3594;42.152;24.714;2023-07-09T04:58:18;62669.91;;;28.43;nan
7105;BME280;3594;42.152;24.714;2023-07-09T05:00:45;62716.03;;;28.19;nan
7105;BME280;3594;42.152;24.714;2023-07-09T05:03:10;62672.72;;;28.10;nan
7105;BME280;3594;42.152;24.714;2023-07-09T05:05:42;62780.56;;;27.90;nan
7105;BME280;3594;42.152;24.714;2023-07-09T05:08:08;62748.38;;;28.22;nan
7105;BME280;3594;42.152;24.714;2023-07-09T05:10:33;62851.63;;;28.73;nan
7105;BME280;3594;42.152;24.714;2023-07-09T05:12:58;62818.31;;;28.72;nan
7105;BME280;3594;42.152;24.714;2023-07-09T05:15:24;62822.72;;;28.85;nan
7105;BME280;3594;42.152;24.714;2023-07-09T05:17:49;62857.13;;;28.76;nan
7105;BME280;3594;42.152;24.714;2023-07-09T05:20:15;62948.50;;;27.87;nan
7105;BME280;3594;42.152;24.714;2023-07-09T05:22:40;62555.78;;;27.00;nan
7105;BME280;3594;42.152;24.714;2023-07-09T05:25:07;62569.09;;;27.31;nan
7105;BME280;3594;42.152;24.714;2023-07-09T05:27:32;62670.03;;;27.43;nan
7105;BME280;3594;42.152;24.714;2023-07-09T05:29:57;62604.88;;;27.48;nan
7105;BME280;3594;42.152;24.714;2023-07-09T05:32:24;62641.34;;;27.62;nan
7105;BME280;3594;42.152;24.714;2023-07-09T05:34:49;62954.41;;;27.83;nan
7105;BME280;3594;42.152;24.714;2023-07-09T05:37:15;62724.63;;;28.26;nan
7105;BME280;3594;42.152;24.714;2023-07-09T05:39:40;62802.25;;;28.85;nan
7105;BME280;3594;42.152;24.714;2023-07-09T05:42:06;62952.97;;;29.76;nan
7105;BME280;3594;42.152;24.714;2023-07-09T05:44:31;62715.84;;;28.28;nan
7105;BME280;3594;42.152;24.714;2023-07-09T05:46:56;63008.63;;;28.05;nan
7105;BME280;3594;42.152;24.714;2023-07-09T05:49:22;62623.50;;;26.95;nan
7105;BME280;3594;42.152;24.714;2023-07-09T05:51:47;62355.94;;;26.32;nan
7105;BME280;3594;42.152;24.714;2023-07-09T05:54:13;62773.41;;;26.56;nan
7105;BME280;3594;42.152;24.714;2023-07-09T05:56:38;62573.00;;;26.55;nan
7105;BME280;3594;42.152;24.714;2023-07-09T05:59:03;62500.13;;;26.00;nan
7105;BME280;3594;42.152;24.714;2023-07-09T06:01:29;62225.31;;;24.33;nan
7105;BME280;3594;42.152;24.714;2023-07-09T06:03:55;62433.28;;;26.24;nan
7105;BME280;3594;42.152;24.714;2023-07-09T06:06:21;62530.31;;;26.04;nan
7105;BME280;3594;42.152;24.714;2023-07-09T06:08:47;62410.19;;;26.13;nan
7105;BME280;3594;42.152;24.714;2023-07-09T06:11:13;62478.88;;;25.86;nan
7105;BME280;3594;42.152;24.714;2023-07-09T06:13:39;62330.34;;;26.05;nan
7105;BME280;3594;42.152;24.714;2023-07-09T06:16:05;62521.47;;;26.10;nan
7105;BME280;3594;42.152;24.714;2023-07-09T06:18:30;62417.25;;;26.10;nan
7105;BME280;3594;42.152;24.714;2023-07-09T06:20:58;62374.97;;;26.01;nan
7105;BME280;3594;42.152;24.714;2023-07-09T06:23:24;62533.09;;;26.11;nan
7105;BME280;3594;42.152;24.714;2023-07-09T06:25:50;62497.47;;;25.88;nan
7105;BME280;3594;42.152;24.714;2023-07-09T06:28:21;62409.41;;;26.10;nan
7105;BME280;3594;42.152;24.714;2023-07-09T06:30:47;62723.19;;;26.30;nan
7105;BME280;3594;42.152;24.714;2023-07-09T06:33:15;62462.00;;;26.29;nan
7105;BME280;3594;42.152;24.714;2023-07-09T06:35:52;62434.44;;;26.25;nan
7105;BME280;3594;42.152;24.714;2023-07-09T06:38:18;62490.88;;;26.41;nan
7105;BME280;3594;42.152;24.714;2023-07-09T06:40:44;62493.66;;;26.48;nan
7105;BME280;3594;42.152;24.714;2023-07-09T06:43:10;62640.84;;;26.57;nan
7105;BME280;3594;42.152;24.714;2023-07-09T06:45:36;62520.75;;;26.74;nan
7105;BME280;3594;42.152;24.714;2023-07-09T06:48:01;62514.19;;;26.54;nan
7105;BME280;3594;42.152;24.714;2023-07-09T06:50:27;62619.41;;;26.80;nan
7105;BME280;3594;42.152;24.714;2023-07-09T06:52:54;62542.69;;;26.84;nan
7105;BME280;3594;42.152;24.714;2023-07-09T06:55:20;62543.19;;;26.89;nan
7105;BME280;3594;42.152;24.714;2023-07-09T06:57:45;62562.47;;;26.71;nan
7105;BME280;3594;42.152;24.714;2023-07-09T07:00:11;62406.19;;;26.37;nan
7105;BME280;3594;42.152;24.714;2023-07-09T07:02:37;62505.56;;;26.63;nan
7105;BME280;3594;42.152;24.714;2023-07-09T07:05:02;62448.78;;;26.61;nan
7105;BME280;3594;42.152;24.714;2023-07-09T07:07:28;62512.84;;;26.90;nan
7105;BME280;3594;42.152;24.714;2023-07-09T07:09:53;62664.81;;;26.83;nan
7105;BME280;3594;42.152;24.714;2023-07-09T07:12:27;62640.00;;;26.87;nan
7105;BME280;3594;42.152;24.714;2023-07-09T07:14:54;62515.59;;;26.97;nan
7105;BME280;3594;42.152;24.714;2023-07-09T07:17:21;62692.03;;;27.37;nan
7105;BME280;3594;42.152;24.714;2023-07-09T07:19:49;62658.94;;;27.43;nan
7105;BME280;3594;42.152;24.714;2023-07-09T07:22:15;62668.88;;;27.58;nan
7105;BME280;3594;42.152;24.714;2023-07-09T07:24:40;62601.34;;;27.50;nan
7105;BME280;3594;42.152;24.714;2023-07-09T07:27:07;62513.19;;;26.88;nan
7105;BME280;3594;42.152;24.714;2023-07-09T07:29:33;62610.03;;;27.53;nan
7105;BME280;3594;42.152;24.714;2023-07-09T07:31:58;62725.91;;;27.35;nan
7105;BME280;3594;42.152;24.714;2023-07-09T07:34:26;62742.78;;;27.68;nan
7105;BME280;3594;42.152;24.714;2023-07-09T07:36:51;62724.53;;;27.75;nan
7105;BME280;3594;42.152;24.714;2023-07-09T07:39:17;62618.75;;;27.67;nan
7105;BME280;3594;42.152;24.714;2023-07-09T07:41:42;62713.00;;;28.09;nan
7105;BME280;3594;42.152;24.714;2023-07-09T07:44:07;62700.94;;;28.15;nan
7105;BME280;3594;42.152;24.714;2023-07-09T07:46:34;62619.50;;;27.98;nan
7105;BME280;3594;42.152;24.714;2023-07-09T07:48:59;62772.59;;;28.10;nan
7105;BME280;3594;42.152;24.714;2023-07-09T07:51:25;62721.09;;;28.28;nan
7105;BME280;3594;42.152;24.714;2023-07-09T07:53:52;62619.09;;;27.65;nan
7105;BME280;3594;42.152;24.714;2023-07-09T07:56:17;62649.31;;;27.85;nan
7105;BME280;3594;42.152;24.714;2023-07-09T07:58:43;62743.66;;;28.10;nan
7105;BME280;3594;42.152;24.714;2023-07-09T08:03:34;62833.66;;;28.23;nan
7105;BME280;3594;42.152;24.714;2023-07-09T08:06:00;62701.63;;;28.22;nan
7105;BME280;3594;42.152;24.714;2023-07-09T08:08:25;62771.03;;;28.55;nan
7105;BME280;3594;42.152;24.714;2023-07-09T08:10:51;62680.84;;;28.25;nan
7105;BME280;3594;42.152;24.714;2023-07-09T08:13:17;62667.84;;;28.32;nan
7105;BME280;3594;42.152;24.714;2023-07-09T08:15:43;62791.94;;;28.48;nan
7105;BME280;3594;42.152;24.714;2023-07-09T08:18:10;62764.13;;;28.49;nan
7105;BME280;3594;42.152;24.714;2023-07-09T08:20:35;62806.97;;;28.69;nan
7105;BME280;3594;42.152;24.714;2023-07-09T08:23:02;62782.16;;;28.68;nan
7105;BME280;3594;42.152;24.714;2023-07-09T08:25:27;62826.75;;;28.61;nan
7105;BME280;3594;42.152;24.714;2023-07-09T08:27:52;62761.41;;;28.54;nan
7105;BME280;3594;42.152;24.714;2023-07-09T08:30:18;62854.38;;;29.08;nan
7105;BME280;3594;42.152;24.714;2023-07-09T08:32:43;62840.78;;;29.15;nan
7105;BME280;3594;42.152;24.714;2023-07-09T08:35:08;62816.88;;;29.24;nan
7105;BME280;3594;42.152;24.714;2023-07-09T08:37:35;62875.44;;;29.36;nan
7105;BME280;3594;42.152;24.714;2023-07-09T08:40:01;62970.16;;;29.68;nan
7105;BME280;3594;42.152;24.714;2023-07-09T08:42:37;63010.69;;;29.46;nan
7105;BME280;3594;42.152;24.714;2023-07-09T08:48:02;62955.72;;;29.72;nan
7105;BME280;3594;42.152;24.714;2023-07-09T08:50:50;62974.16;;;29.72;nan
7105;BME280;3594;42.152;24.714;2023-07-09T08:53:44;62932.81;;;29.35;nan
7105;BME280;3594;42.152;24.714;2023-07-09T08:56:09;62971.09;;;29.51;nan
7105;BME280;3594;42.152;24.714;2023-07-09T08:58:36;62941.88;;;29.48;nan
7105;BME280;3594;42.152;24.714;2023-07-09T09:01:05;62909.81;;;29.43;nan
7105;BME280;3594;42.152;24.714;2023-07-09T09:03:37;62918.19;;;29.60;nan
7105;BME280;3594;42.152;24.714;2023-07-09T09:06:13;62993.22;;;29.56;nan
7105;BME280;3594;42.152;24.714;2023-07-09T09:11:45;62953.75;;;29.68;nan
7105;BME280;3594;42.152;24.714;2023-07-09T09:14:38;62954.75;;;29.62;nan
7105;BME280;3594;42.152;24.714;2023-07-09T09:17:12;63015.78;;;29.83;nan
7105;BME280;3594;42.152;24.714;2023-07-09T09:19:53;62933.09;;;29.61;nan
7105;BME280;3594;42.152;24.714;2023-07-09T09:22:33;63030.13;;;29.56;nan
7105;BME280;3594;42.152;24.714;2023-07-09T09:25:27;63031.03;;;29.55;nan
7105;BME280;3594;42.152;24.714;2023-07-09T09:27:53;62946.34;;;29.84;nan
7105;BME280;3594;42.152;24.714;2023-07-09T09:30:21;63102.19;;;29.99;nan
7105;BME280;3594;42.152;24.714;2023-07-09T09:35:26;63050.44;;;30.20;nan
7105;BME280;3594;42.152;24.714;2023-07-09T09:37:56;63073.19;;;30.26;nan
7105;BME280;3594;42.152;24.714;2023-07-09T09:40:24;63102.66;;;30.32;nan
7105;BME280;3594;42.152;24.714;2023-07-09T09:42:51;63125.75;;;30.36;nan
7105;BME280;3594;42.152;24.714;2023-07-09T09:45:19;63097.34;;;30.20;nan
7105;BME280;3594;42.152;24.714;2023-07-09T09:47:46;63018.41;;;30.11;nan
7105;BME280;3594;42.152;24.714;2023-07-09T09:50:20;63119.28;;;30.23;nan
7105;BME280;3594;42.152;24.714;2023-07-09T09:52:47;63009.44;;;30.33;nan
7105;BME280;3594;42.152;24.714;2023-07-09T09:55:20;63123.31;;;30.38;nan
7105;BME280;3594;42.152;24.714;2023-07-09T09:57:52;63303.31;;;30.22;nan
7105;BME280;3594;42.152;24.714;2023-07-09T10:00:21;63312.25;;;30.49;nan
7105;BME280;3594;42.152;24.714;2023-07-09T10:02:48;63027.75;;;30.26;nan
7105;BME280;3594;42.152;24.714;2023-07-09T10:05:15;63149.16;;;30.38;nan
7105;BME280;3594;42.152;24.714;2023-07-09T10:08:03;63021.81;;;30.30;nan
7105;BME280;3594;42.152;24.714;2023-07-09T10:10:33;63084.31;;;30.55;nan
7105;BME280;3594;42.152;24.714;2023-07-09T10:16:07;63212.75;;;30.96;nan
7105;BME280;3594;42.152;24.714;2023-07-09T10:21:34;62800.28;;;28.81;nan
7105;BME280;3594;42.152;24.714;2023-07-09T10:24:37;63307.03;;;30.77;nan
7105;BME280;3594;42.152;24.714;2023-07-09T10:27:19;63148.53;;;30.81;nan
7105;BME280;3594;42.152;24.714;2023-07-09T10:35:44;63131.97;;;31.01;nan
7105;BME280;3594;42.152;24.714;2023-07-09T10:40:59;63393.72;;;30.99;nan
7105;BME280;3594;42.152;24.714;2023-07-09T10:43:36;63097.25;;;30.92;nan
7105;BME280;3594;42.152;24.714;2023-07-09T10:46:11;63214.91;;;30.91;nan
7105;BME280;3594;42.152;24.714;2023-07-09T10:48:56;63192.06;;;30.89;nan
7105;BME280;3594;42.152;24.714;2023-07-09T10:51:28;63119.94;;;31.02;nan
7105;BME280;3594;42.152;24.714;2023-07-09T10:53:58;63220.00;;;31.16;nan
7105;BME280;3594;42.152;24.714;2023-07-09T10:56:28;63432.94;;;30.90;nan
7105;BME280;3594;42.152;24.714;2023-07-09T11:01:46;63226.06;;;30.91;nan
7105;BME280;3594;42.152;24.714;2023-07-09T11:04:35;63073.50;;;30.92;nan
7105;BME280;3594;42.152;24.714;2023-07-09T11:07:05;63057.50;;;30.85;nan
7105;BME280;3594;42.152;24.714;2023-07-09T11:09:39;63067.94;;;30.78;nan
7105;BME280;3594;42.152;24.714;2023-07-09T11:17:26;63215.38;;;31.51;nan
7105;BME280;3594;42.152;24.714;2023-07-09T11:19:58;63392.28;;;31.17;nan
7105;BME280;3594;42.152;24.714;2023-07-09T11:22:27;63097.16;;;30.96;nan
7105;BME280;3594;42.152;24.714;2023-07-09T11:25:12;63069.63;;;31.07;nan
7105;BME280;3594;42.152;24.714;2023-07-09T11:27:53;63429.16;;;31.21;nan
7105;BME280;3594;42.152;24.714;2023-07-09T11:30:26;63432.13;;;31.19;nan
7105;BME280;3594;42.152;24.714;2023-07-09T11:32:57;63045.94;;;30.91;nan
7105;BME280;3594;42.152;24.714;2023-07-09T11:35:29;63186.03;;;31.37;nan
7105;BME280;3594;42.152;24.714;2023-07-09T11:37:55;63206.59;;;31.37;nan
7105;BME280;3594;42.152;24.714;2023-07-09T11:40:24;63252.31;;;31.56;nan
7105;BME280;3594;42.152;24.714;2023-07-09T11:42:57;63356.63;;;31.52;nan
7105;BME280;3594;42.152;24.714;2023-07-09T11:45:31;63189.38;;;31.45;nan
7105;BME280;3594;42.152;24.714;2023-07-09T11:48:25;63302.22;;;31.42;nan
7105;BME280;3594;42.152;24.714;2023-07-09T11:50:53;63192.91;;;31.32;nan
7105;BME280;3594;42.152;24.714;2023-07-09T11:53:35;63239.97;;;31.54;nan
7105;BME280;3594;42.152;24.714;2023-07-09T11:56:03;63159.50;;;31.30;nan
7105;BME280;3594;42.152;24.714;2023-07-09T11:58:29;63191.22;;;31.42;nan
7105;BME280;3594;42.152;24.714;2023-07-09T12:00:56;63290.13;;;31.59;nan
7105;BME280;3594;42.152;24.714;2023-07-09T12:03:29;63323.34;;;31.86;nan
7105;BME280;3594;42.152;24.714;2023-07-09T12:06:13;63300.81;;;31.38;nan
7105;BME280;3594;42.152;24.714;2023-07-09T12:08:42;63258.19;;;31.40;nan
7105;BME280;3594;42.152;24.714;2023-07-09T12:13:47;63239.97;;;31.54;nan
7105;BME280;3594;42.152;24.714;2023-07-09T12:16:30;63163.38;;;31.27;nan
7105;BME280;3594;42.152;24.714;2023-07-09T12:18:57;63421.38;;;31.61;nan
7105;BME280;3594;42.152;24.714;2023-07-09T12:21:24;63359.78;;;31.85;nan
7105;BME280;3594;42.152;24.714;2023-07-09T12:23:50;63400.94;;;31.84;nan
7105;BME280;3594;42.152;24.714;2023-07-09T12:26:17;63311.09;;;32.08;nan
7105;BME280;3594;42.152;24.714;2023-07-09T12:28:52;63241.34;;;31.86;nan
7105;BME280;3594;42.152;24.714;2023-07-09T12:31:24;63377.84;;;31.92;nan
7105;BME280;3594;42.152;24.714;2023-07-09T12:33:52;63270.09;;;31.88;nan
7105;BME280;3594;42.152;24.714;2023-07-09T12:36:18;63258.03;;;32.00;nan
7105;BME280;3594;42.152;24.714;2023-07-09T12:38:46;63328.22;;;32.04;nan
7105;BME280;3594;42.152;24.714;2023-07-09T12:41:24;63361.16;;;32.44;nan
7105;BME280;3594;42.152;24.714;2023-07-09T12:43:52;63591.22;;;32.26;nan
7105;BME280;3594;42.152;24.714;2023-07-09T12:46:18;63450.78;;;32.19;nan
7105;BME280;3594;42.152;24.714;2023-07-09T12:48:45;63386.06;;;32.62;nan
7105;BME280;3594;42.152;24.714;2023-07-09T12:51:18;63302.06;;;32.30;nan
7105;BME280;3594;42.152;24.714;2023-07-09T12:53:45;63384.97;;;32.44;nan
7105;BME280;3594;42.152;24.714;2023-07-09T12:56:13;63463.66;;;32.37;nan
7105;BME280;3594;42.152;24.714;2023-07-09T12:58:39;63435.50;;;32.75;nan
7105;BME280;3594;42.152;24.714;2023-07-09T13:01:06;63410.97;;;32.67;nan
7105;BME280;3594;42.152;24.714;2023-07-09T13:03:33;63445.22;;;32.32;nan
7105;BME280;3594;42.152;24.714;2023-07-09T13:06:04;63387.09;;;32.28;nan
7105;BME280;3594;42.152;24.714;2023-07-09T13:08:33;63416.78;;;32.28;nan
7105;BME280;3594;42.152;24.714;2023-07-09T13:11:14;63339.72;;;32.30;nan
7105;BME280;3594;42.152;24.714;2023-07-09T13:13:40;63335.81;;;32.34;nan
7105;BME280;3594;42.152;24.714;2023-07-09T13:16:06;63431.72;;;32.74;nan
7105;BME280;3594;42.152;24.714;2023-07-09T13:18:31;63405.03;;;32.55;nan
7105;BME280;3594;42.152;24.714;2023-07-09T13:20:57;63452.53;;;32.48;nan
7105;BME280;3594;42.152;24.714;2023-07-09T13:23:28;63354.69;;;32.43;nan
7105;BME280;3594;42.152;24.714;2023-07-09T13:25:55;63383.28;;;31.99;nan
7105;BME280;3594;42.152;24.714;2023-07-09T13:28:27;63436.72;;;32.60;nan
7105;BME280;3594;42.152;24.714;2023-07-09T13:31:14;63511.78;;;32.86;nan
7105;BME280;3594;42.152;24.714;2023-07-09T13:33:44;63471.91;;;32.79;nan
7105;BME280;3594;42.152;24.714;2023-07-09T13:36:10;63537.88;;;33.04;nan
7105;BME280;3594;42.152;24.714;2023-07-09T13:38:36;63513.56;;;32.99;nan
7105;BME280;3594;42.152;24.714;2023-07-09T13:41:11;63437.50;;;32.91;nan
7105;BME280;3594;42.152;24.714;2023-07-09T13:43:39;63430.47;;;32.89;nan
7105;BME280;3594;42.152;24.714;2023-07-09T13:46:07;63510.81;;;33.32;nan
7105;BME280;3594;42.152;24.714;2023-07-09T13:48:34;63586.41;;;33.35;nan
7105;BME280;3594;42.152;24.714;2023-07-09T13:51:00;63583.63;;;33.56;nan
7105;BME280;3594;42.152;24.714;2023-07-09T13:53:31;63633.25;;;33.20;nan
7105;BME280;3594;42.152;24.714;2023-07-09T13:55:56;63534.59;;;33.48;nan
7105;BME280;3594;42.152;24.714;2023-07-09T13:58:24;63617.50;;;33.11;nan
7105;BME280;3594;42.152;24.714;2023-07-09T14:00:56;63506.28;;;33.23;nan
7105;BME280;3594;42.152;24.714;2023-07-09T14:03:26;63358.47;;;32.84;nan
7105;BME280;3594;42.152;24.714;2023-07-09T14:05:53;63420.88;;;32.71;nan
7105;BME280;3594;42.152;24.714;2023-07-09T14:08:20;63493.22;;;32.58;nan
7105;BME280;3594;42.152;24.714;2023-07-09T14:10:47;63323.94;;;32.37;nan
7105;BME280;3594;42.152;24.714;2023-07-09T14:13:15;63416.84;;;32.79;nan
7105;BME280;3594;42.152;24.714;2023-07-09T14:15:41;63460.63;;;32.55;nan
7105;BME280;3594;42.152;24.714;2023-07-09T14:18:17;63434.00;;;32.76;nan